RJFFRJFK

Guest
Details From RJFF - Fukuoka
To RJFK - Kagoshima
Flight Number -
Tags Generated
Created
Modified
Stats Distance 108 nm / 200 km
Max Altitude 0 ft / 0 m
Waypoints 2
Social Downloads 3
Likes 0
Share VATSIM

Download

Looking for another format? Having issues loading an existing format? Contact us
Advertisement - Login to hide

Notes

Generated

Route

RJFF RJFK

ID Type Via Altitude Latitude Longitude Leg Dist Tot Dist Heading (true) Name
O RJFF APT - 0 ft / 0 m 33.59692˚ 130.44319˚ - 0 nm - -
O RJFK APT - 0 ft / 0 m 31.81511˚ 130.71148˚ 107 nm 107 nm 173° / 173° -

Altitude Profile

Advertisement - Login to hide

RJFF

Details ICAO RJFF (FUK)
Name FUKUOKA
Region Japan
Timezone Asia/Tokyo (UTC+9.0)
Stats Elevation 32 ft / 10 m (AMSL)
Location 33.585943° 130.450686°
Runways 1
Magnetic Variation 7.482° W

METAR

RJFF 252100Z 07004KT 9999 -RA FEW025 SCT050 BKN100 20/17 Q1008

Decode

TAF

TAF RJFF 251705Z 2518/2700 36005KT 9999 -RA FEW030 BKN040 BECMG 2518/2520 15008KT

Decode

Departure Runways

ID Width Length Bearing (true) Bearing (mag) Surface Threshold Offset Overrun Length
16 197 ft / 60 m 9,217 ft / 2,810 m 150.35° 157.83° Asphalt 0 ft / 0 m 719 ft / 219 m
34 197 ft / 60 m 9,217 ft / 2,810 m 330.35° 337.83° Asphalt 0 ft / 0 m 801 ft / 244 m

RJFK

Details ICAO RJFK (KOJ)
Name KAGOSHIMA
Region Japan
Timezone Asia/Tokyo (UTC+9.0)
Stats Elevation 906 ft / 276 m (AMSL)
Location 31.803400° 130.719405°
Runways 1
Magnetic Variation 6.946° W

METAR

RJFK 252100Z 02004KT 9999 VA -RA VCFG FEW001 OVC040 14/14 Q1008

Decode

TAF

TAF AMD RJFK 252046Z 2520/2700 04005KT 8000 -SHRA VA FEW010 SCT020 BKN030 TEMPO 2520/2600 3000 SHRA BR VA FEW002 BKN008 BKN012 BECMG 2521/2523 09013KT TEMPO 2600/2606 09015G25KT 4000 SHRA BR VA

Decode

Destination Runways

ID Width Length Bearing (true) Bearing (mag) Surface Threshold Offset Overrun Length
16 150 ft / 46 m 9,861 ft / 3,006 m 150.11° 157.06° Asphalt 0 ft / 0 m 200 ft / 61 m
34 150 ft / 46 m 9,861 ft / 3,006 m 330.11° 337.06° Asphalt 0 ft / 0 m 200 ft / 61 m

Approach Navaids

Runway Type Ident Frequency Range Bearing (true) Bearing (mag) Slope Elevation
34 Localiser IKG 111.70 MHz 18 nm / 33 km 330.11° 337.06° - 906 ft / 276 m (AMSL)
34 Glidescope IKG 111.70 MHz 10 nm / 19 km 330.11° 337.06° 3.00° 906 ft / 276 m (AMSL)

Popular Alternatives